Weather at Puka Heliport

Public forecast

Using degrees Celsius for public forecast. Weather courtesy of forecast.io.

Closest aviation weather report (METAR) to Puka Heliport

Closest report is Podgorica Airport / Podgorica Golubovci Airbase, 33.2 nm (61.4 km) NW.

2024/04/18 04:00 (retrieved 35 minutes ago)

LYPG 180400Z 34009KT 9999 FEW040 SCT090 10/01 Q1005 NOSIG

Closest aviation forecast (TAF) to Puka Heliport

Forecast is more than 12 hours old.

Closest forecast is Kukës International Airport, 24.7 nm (45.8 km) E.

2024/04/17 12:00 Ammendment (retrieved 17 hours ago)

TAF AMD LAKU 171636Z 1712/1812 CNL